createdAt,value
2022-11-08T12:30:18.197Z,70.82
2022-11-08T12:32:56.001Z,71.00
2022-11-08T12:35:30.752Z,70.32
2022-11-08T12:38:04.093Z,70.48
2022-11-08T12:40:47.398Z,70.77
2022-11-08T12:43:33.223Z,70.70
2022-11-08T12:46:21.394Z,70.46
2022-11-08T12:49:16.208Z,70.43
2022-11-08T12:52:08.496Z,70.50
2022-11-08T12:55:03.425Z,70.20
2022-11-08T12:57:34.816Z,70.61
2022-11-08T13:00:14.736Z,70.94
2022-11-08T13:02:44.525Z,71.08
2022-11-08T13:05:25.822Z,70.71
2022-11-08T13:07:54.298Z,70.37
2022-11-08T13:10:47.777Z,70.56
2022-11-08T13:13:38.053Z,70.57
2022-11-08T13:16:10.182Z,70.59
2022-11-08T13:18:46.282Z,71.23
2022-11-08T13:21:28.449Z,70.80
2022-11-08T13:24:43.256Z,70.76
2022-11-08T13:27:30.413Z,70.67
2022-11-08T13:30:24.095Z,70.68
2022-11-08T13:33:12.231Z,70.26
2022-11-08T13:35:47.558Z,69.72
2022-11-08T13:38:42.635Z,70.47
2022-11-08T13:41:25.520Z,70.20
2022-11-08T13:43:59.432Z,70.56
2022-11-08T13:46:26.977Z,70.79
2022-11-08T13:49:03.655Z,71.04
2022-11-08T13:51:41.274Z,70.95
2022-11-08T13:54:31.213Z,71.14
2022-11-08T13:57:12.424Z,71.26
2022-11-08T14:01:13.108Z,70.76
2022-11-08T14:03:40.204Z,70.89
2022-11-08T14:06:07.369Z,70.30
2022-11-08T14:09:02.000Z,70.97
2022-11-08T14:11:38.627Z,70.51
2022-11-08T14:14:20.447Z,71.18
2022-11-08T14:17:15.692Z,70.91
2022-11-08T14:19:48.939Z,70.90
2022-11-08T14:22:28.417Z,70.87
2022-11-08T14:25:07.154Z,71.08
2022-11-08T14:27:37.522Z,70.68
2022-11-08T14:30:13.953Z,70.66
2022-11-08T14:32:41.137Z,70.92
2022-11-08T14:35:25.995Z,70.39
2022-11-08T14:37:53.878Z,70.61
2022-11-08T14:40:29.748Z,71.14
2022-11-08T14:43:05.422Z,70.71
2022-11-08T14:45:39.551Z,70.86
2022-11-08T14:48:07.424Z,70.83
2022-11-08T14:50:35.665Z,71.56
2022-11-08T14:53:47.704Z,71.20
2022-11-08T14:56:19.740Z,71.14
2022-11-08T14:58:48.866Z,71.11
2022-11-08T15:01:19.378Z,71.30
2022-11-08T15:03:53.468Z,71.58
2022-11-08T15:06:22.163Z,71.49
2022-11-08T15:12:29.477Z,71.40
2022-11-08T15:15:02.470Z,70.98
2022-11-08T15:17:32.251Z,71.10
2022-11-08T15:20:09.506Z,71.06
2022-11-08T15:22:37.697Z,71.20
2022-11-08T15:25:16.534Z,70.92
2022-11-08T15:27:52.257Z,71.48
2022-11-08T15:30:23.104Z,70.86
2022-11-08T15:33:04.017Z,71.37
2022-11-08T15:35:37.477Z,71.46
2022-11-08T15:38:33.617Z,71.00
2022-11-08T15:42:30.787Z,71.66
2022-11-08T15:45:14.818Z,71.72
2022-11-08T15:47:50.483Z,71.15
2022-11-08T15:50:30.148Z,70.96
2022-11-08T15:53:02.365Z,71.47
2022-11-08T15:56:04.141Z,72.09
2022-11-08T15:58:40.096Z,72.21
2022-11-08T16:01:07.201Z,72.01
2022-11-08T16:03:37.407Z,72.51
2022-11-08T16:06:42.616Z,72.52
2022-11-08T16:09:15.677Z,72.46
2022-11-08T16:11:46.504Z,72.09
2022-11-08T16:14:22.932Z,71.89
2022-11-08T16:16:58.747Z,72.37
2022-11-08T16:19:33.710Z,72.06
2022-11-08T16:22:56.977Z,72.10
2022-11-08T16:25:00.897Z,72.12
2022-11-08T16:27:38.790Z,71.49
2022-11-08T16:30:14.657Z,71.75
2022-11-08T16:32:42.297Z,71.20
2022-11-08T16:35:12.539Z,71.52
2022-11-08T16:38:13.572Z,71.52
2022-11-08T16:40:45.220Z,71.50
2022-11-08T16:43:12.859Z,71.79
2022-11-08T16:46:04.330Z,71.77
2022-11-08T16:48:28.166Z,71.80
2022-11-08T16:51:02.027Z,71.84
2022-11-08T16:53:30.020Z,71.84
2022-11-08T16:55:57.387Z,71.80
2022-11-08T16:58:25.671Z,71.52
2022-11-08T17:00:53.278Z,71.80
2022-11-08T17:03:25.823Z,72.53
2022-11-08T17:05:56.025Z,72.20
2022-11-08T17:08:25.355Z,71.91
2022-11-08T17:10:58.424Z,72.41
2022-11-08T17:13:25.661Z,72.13
2022-11-08T17:16:06.635Z,71.97
2022-11-08T17:18:35.330Z,72.75
2022-11-08T17:21:38.191Z,72.64
2022-11-08T17:24:00.846Z,72.51
2022-11-08T17:26:28.825Z,72.66
2022-11-08T17:28:57.556Z,72.51
2022-11-08T17:31:25.054Z,71.98
2022-11-08T17:33:52.347Z,72.32
2022-11-08T17:36:22.195Z,72.71
2022-11-08T17:38:51.745Z,71.99
2022-11-08T17:41:19.263Z,72.10
2022-11-08T17:43:48.751Z,72.22
2022-11-08T17:46:15.721Z,71.89
2022-11-08T17:53:15.545Z,71.78
2022-11-08T17:55:42.730Z,71.81
2022-11-08T17:58:10.143Z,72.37
2022-11-08T18:00:37.401Z,72.46
2022-11-08T18:03:12.503Z,72.21
2022-11-08T18:05:40.624Z,71.75
2022-11-08T18:08:10.264Z,71.76
2022-11-08T18:10:37.272Z,71.74
2022-11-08T18:13:04.432Z,71.90
2022-11-08T18:15:31.808Z,71.30
2022-11-08T18:17:58.987Z,72.13
2022-11-08T18:20:26.004Z,71.84
2022-11-08T18:22:53.204Z,71.71
2022-11-08T18:25:20.425Z,71.95
2022-11-08T18:27:47.497Z,71.83
2022-11-08T18:30:19.151Z,72.21
2022-11-08T18:32:56.277Z,72.15
2022-11-08T18:35:30.450Z,71.89
2022-11-08T18:37:57.629Z,71.83
2022-11-08T18:40:26.628Z,72.12
2022-11-08T18:42:53.645Z,71.85
2022-11-08T18:45:23.039Z,71.98
2022-11-08T18:47:53.269Z,72.06
2022-11-08T18:50:32.522Z,71.92
2022-11-08T18:53:05.064Z,72.60
2022-11-08T18:55:52.214Z,72.08
2022-11-08T18:58:32.709Z,71.70
2022-11-08T19:01:00.496Z,72.19
2022-11-08T19:03:37.235Z,72.42
2022-11-08T19:06:29.402Z,72.05
2022-11-08T19:09:09.308Z,72.54
2022-11-08T19:11:37.194Z,71.93
2022-11-08T19:14:07.515Z,72.11
2022-11-08T19:16:49.285Z,72.11
2022-11-08T19:23:42.771Z,72.06
2022-11-08T19:26:33.822Z,71.69
2022-11-08T19:29:04.192Z,71.90
2022-11-08T19:31:36.308Z,72.32
2022-11-08T19:34:03.664Z,72.50
2022-11-08T19:36:33.748Z,72.40
2022-11-08T19:39:05.811Z,72.05
2022-11-08T19:44:55.420Z,71.85
2022-11-08T19:47:30.878Z,71.80
2022-11-08T19:49:58.296Z,72.53
2022-11-08T19:52:25.264Z,72.23
2022-11-08T19:55:08.635Z,72.38
2022-11-08T19:57:49.605Z,72.08
2022-11-08T20:00:22.406Z,71.61
2022-11-08T20:03:10.715Z,72.09
2022-11-08T20:05:43.095Z,72.36
2022-11-08T20:08:13.384Z,72.41
2022-11-08T20:10:50.288Z,72.51
2022-11-08T20:13:20.292Z,72.53
2022-11-08T20:15:47.533Z,71.94
2022-11-08T20:18:21.427Z,72.18
2022-11-08T20:20:48.815Z,72.13
2022-11-08T20:23:30.537Z,71.78
2022-11-08T20:27:08.926Z,71.75
2022-11-08T20:30:07.036Z,71.37
2022-11-08T20:33:02.929Z,71.73
2022-11-08T20:35:50.748Z,71.83
2022-11-08T20:38:22.636Z,72.30
2022-11-08T20:40:51.173Z,72.04
2022-11-08T20:43:18.295Z,71.95
2022-11-08T20:45:45.805Z,71.64
2022-11-08T20:48:14.215Z,72.02
2022-11-08T20:50:41.679Z,72.32
2022-11-08T20:53:08.825Z,72.34
2022-11-08T20:55:43.170Z,72.40
2022-11-08T20:58:31.838Z,72.49
2022-11-08T21:04:44.571Z,72.28
2022-11-08T21:10:26.903Z,72.58
2022-11-08T21:12:47.255Z,72.47
2022-11-08T21:15:17.069Z,72.49
2022-11-08T21:17:54.249Z,72.20
2022-11-08T21:20:27.293Z,71.97
2022-11-08T21:22:54.610Z,72.41
2022-11-08T21:25:24.208Z,72.62
2022-11-08T21:27:51.363Z,74.51
2022-11-08T21:30:19.448Z,74.43
2022-11-08T21:32:46.472Z,73.80
2022-11-08T21:35:13.392Z,72.83
2022-11-08T21:37:40.777Z,71.90
2022-11-08T21:40:08.252Z,71.27
2022-11-08T21:42:41.705Z,71.91
2022-11-08T21:45:11.288Z,72.03
2022-11-08T21:47:38.668Z,72.28
2022-11-08T21:50:06.291Z,72.10
2022-11-08T21:52:33.480Z,72.47
2022-11-08T21:55:00.649Z,72.20
2022-11-08T21:57:31.604Z,72.71
2022-11-08T21:59:58.789Z,72.86
2022-11-08T22:02:26.982Z,72.85
2022-11-08T22:04:54.386Z,72.94
2022-11-08T22:07:27.527Z,72.64
2022-11-08T22:09:55.062Z,72.96
2022-11-08T22:12:22.396Z,73.33
2022-11-08T22:14:51.814Z,72.69
2022-11-08T22:17:21.541Z,72.95
2022-11-08T22:20:01.883Z,72.21
2022-11-08T22:22:34.870Z,72.39
2022-11-08T22:25:02.278Z,72.80
2022-11-08T22:27:30.069Z,72.73
2022-11-08T22:29:57.129Z,72.81
2022-11-08T22:32:24.122Z,72.92
2022-11-08T22:34:51.237Z,72.66
2022-11-08T22:37:19.918Z,72.83
2022-11-08T22:39:49.134Z,73.13
2022-11-08T22:42:16.397Z,73.29
2022-11-08T22:44:43.480Z,73.05
2022-11-08T22:47:10.630Z,73.25
2022-11-08T22:49:42.421Z,73.32
2022-11-08T22:52:12.079Z,72.50
2022-11-08T22:54:39.334Z,72.91
2022-11-08T22:57:08.028Z,73.00
2022-11-08T22:59:37.063Z,73.18
2022-11-08T23:02:04.074Z,73.28
2022-11-08T23:04:34.101Z,73.00
2022-11-08T23:07:01.725Z,73.13
2022-11-08T23:09:28.769Z,72.69
2022-11-08T23:12:14.360Z,72.88
2022-11-08T23:14:59.841Z,72.66
2022-11-08T23:17:26.928Z,73.06
2022-11-08T23:20:12.630Z,72.95
2022-11-08T23:22:58.107Z,72.66
2022-11-08T23:25:25.339Z,72.66
2022-11-08T23:28:10.948Z,72.40
2022-11-08T23:31:37.563Z,72.46
2022-11-08T23:34:05.177Z,72.46
2022-11-08T23:36:34.982Z,72.59
2022-11-08T23:39:02.290Z,72.33
2022-11-08T23:41:47.913Z,72.65
2022-11-08T23:44:23.963Z,72.57
2022-11-08T23:46:52.770Z,73.00
2022-11-08T23:49:19.966Z,73.24
2022-11-08T23:51:47.510Z,73.11
2022-11-08T23:54:14.706Z,73.35
2022-11-08T23:56:42.700Z,73.37
2022-11-08T23:59:11.122Z,73.23
